SAS39G LIRQ-EKCH
Flight info
| Callsign | SAS39G |
|---|---|
| Flight time | 1h 57m |
| Altitude | 18000 |
| Route | OKMAP Q125 OMAKU/N0443F380 DCT BOA DCT LUMAV DCT SUMIR DCT BRENO DCT KONIN DCT EXITI DCT EMBOX/N0448F370 DCT NOBRI/N0446F380 M726 ROSOK Q296 MONAK |
| Aircraft | A319/M-SDE3FGHIRWY/LB1 |
Departure
| Time | 2026-04-25 16:31 |
|---|---|
| Airport | Florence Airport, Peretola (LIRQ) |
Arrival
| Time | 2026-04-25 18:28 |
|---|---|
| Airport | Copenhagen Kastrup Airport (EKCH) |
| Time | Latitude | Longitude | Altitude | Speed | Heading |
|---|---|---|---|---|---|
| 2026-04-25 16:16 | 43.80457 | 11.19959 | 132 ft | 7 kts | 14° |
| 2026-04-25 16:17 | 43.80468 | 11.19963 | 132 ft | 0 kts | 13° |
| 2026-04-25 16:26 | 43.80470 | 11.19964 | 132 ft | 1 kts | 13° |
| 2026-04-25 16:26 | 43.80496 | 11.19972 | 133 ft | 7 kts | 13° |
| 2026-04-25 16:27 | 43.80564 | 11.19995 | 133 ft | 14 kts | 14° |
| 2026-04-25 16:27 | 43.80681 | 11.20038 | 132 ft | 20 kts | 20° |
| 2026-04-25 16:27 | 43.80789 | 11.20175 | 132 ft | 24 kts | 48° |
| 2026-04-25 16:27 | 43.80914 | 11.20370 | 128 ft | 30 kts | 48° |
| 2026-04-25 16:28 | 43.81069 | 11.20609 | 126 ft | 35 kts | 48° |
| 2026-04-25 16:28 | 43.81231 | 11.20861 | 132 ft | 30 kts | 48° |
| 2026-04-25 16:28 | 43.81260 | 11.21091 | 138 ft | 24 kts | 94° |
| 2026-04-25 16:28 | 43.81290 | 11.21269 | 144 ft | 18 kts | 48° |
| 2026-04-25 16:29 | 43.81374 | 11.21379 | 145 ft | 11 kts | 21° |
| 2026-04-25 16:29 | 43.81468 | 11.21354 | 138 ft | 16 kts | 342° |
| 2026-04-25 16:29 | 43.81512 | 11.21301 | 134 ft | 10 kts | 266° |
| 2026-04-25 16:29 | 43.81499 | 11.21272 | 133 ft | 0 kts | 229° |
| 2026-04-25 16:30 | 43.81496 | 11.21268 | 133 ft | 4 kts | 228° |
| 2026-04-25 16:30 | 43.81357 | 11.21053 | 132 ft | 71 kts | 228° |
| 2026-04-25 16:30 | 43.80839 | 11.20249 | 211 ft | 139 kts | 229° |
| 2026-04-25 16:31 | 43.80266 | 11.19186 | 884 ft | 140 kts | 249° |
| 2026-04-25 16:31 | 43.80348 | 11.17817 | 1531 ft | 154 kts | 292° |
| 2026-04-25 16:31 | 43.80882 | 11.16489 | 2123 ft | 165 kts | 290° |
| 2026-04-25 16:31 | 43.81046 | 11.14852 | 2462 ft | 181 kts | 269° |
| 2026-04-25 16:32 | 43.81032 | 11.13015 | 2815 ft | 201 kts | 270° |
| 2026-04-25 16:32 | 43.81038 | 11.11037 | 3531 ft | 208 kts | 271° |
| 2026-04-25 16:32 | 43.81066 | 11.09029 | 4410 ft | 210 kts | 271° |
| 2026-04-25 16:32 | 43.81112 | 11.06984 | 5249 ft | 215 kts | 272° |
| 2026-04-25 16:33 | 43.81171 | 11.04906 | 6105 ft | 218 kts | 273° |
| 2026-04-25 16:33 | 43.81308 | 11.02820 | 6905 ft | 223 kts | 283° |
| 2026-04-25 16:33 | 43.81899 | 11.00835 | 7685 ft | 227 kts | 303° |
| 2026-04-25 16:33 | 43.82987 | 10.99187 | 8499 ft | 232 kts | 323° |
| 2026-04-25 16:34 | 43.84426 | 10.98152 | 9339 ft | 236 kts | 342° |
| 2026-04-25 16:34 | 43.86043 | 10.97859 | 10138 ft | 241 kts | 2° |
| 2026-04-25 16:34 | 43.87691 | 10.98378 | 10907 ft | 247 kts | 22° |
| 2026-04-25 16:34 | 43.89126 | 10.99698 | 11677 ft | 252 kts | 44° |
| 2026-04-25 16:35 | 43.89525 | 11.00305 | 11944 ft | 253 kts | 51° |
| 2026-04-25 16:35 | 43.90549 | 11.04108 | 13252 ft | 261 kts | 88° |
| 2026-04-25 16:35 | 43.90485 | 11.06640 | 14019 ft | 264 kts | 90° |
| 2026-04-25 16:35 | 43.90505 | 11.09271 | 14382 ft | 284 kts | 86° |
| 2026-04-25 16:36 | 43.90728 | 11.12105 | 14584 ft | 307 kts | 77° |
| 2026-04-25 16:36 | 43.90914 | 11.13081 | 14647 ft | 314 kts | 70° |
| 2026-04-25 16:36 | 43.93215 | 11.17209 | 14886 ft | 348 kts | 36° |
| 2026-04-25 16:36 | 43.95207 | 11.19230 | 15285 ft | 359 kts | 34° |
| 2026-04-25 16:37 | 43.97253 | 11.21257 | 15891 ft | 364 kts | 34° |
| 2026-04-25 16:37 | 43.99330 | 11.23304 | 16523 ft | 368 kts | 34° |
| 2026-04-25 16:37 | 44.01426 | 11.25372 | 17160 ft | 372 kts | 34° |
| 2026-04-25 16:37 | 44.03540 | 11.27468 | 17793 ft | 375 kts | 34° |
| 2026-04-25 16:38 | 44.05670 | 11.29595 | 18432 ft | 379 kts | 34° |
| 2026-04-25 16:38 | 44.07818 | 11.31749 | 18984 ft | 382 kts | 35° |
| 2026-04-25 16:38 | 44.09984 | 11.33925 | 19545 ft | 386 kts | 34° |
| 2026-04-25 16:38 | 44.12291 | 11.35834 | 20117 ft | 388 kts | 24° |
| 2026-04-25 16:39 | 44.14846 | 11.37069 | 20683 ft | 390 kts | 12° |
| 2026-04-25 16:39 | 44.17543 | 11.37566 | 21228 ft | 393 kts | 1° |
| 2026-04-25 16:39 | 44.20275 | 11.37291 | 21751 ft | 396 kts | 350° |
| 2026-04-25 16:39 | 44.23001 | 11.36617 | 22294 ft | 400 kts | 349° |
| 2026-04-25 16:40 | 44.25754 | 11.35937 | 22788 ft | 403 kts | 349° |
| 2026-04-25 16:40 | 44.28529 | 11.35253 | 23277 ft | 407 kts | 349° |
| 2026-04-25 16:40 | 44.31323 | 11.34570 | 23732 ft | 410 kts | 349° |
| 2026-04-25 16:40 | 44.34146 | 11.33882 | 24160 ft | 413 kts | 350° |
| 2026-04-25 16:41 | 44.36984 | 11.33189 | 24599 ft | 415 kts | 350° |
| 2026-04-25 16:41 | 44.38867 | 11.32730 | 24888 ft | 416 kts | 350° |
| 2026-04-25 16:41 | 44.45573 | 11.31081 | 25894 ft | 421 kts | 350° |
| 2026-04-25 16:42 | 44.48474 | 11.30508 | 26315 ft | 423 kts | 357° |
| 2026-04-25 16:42 | 44.51410 | 11.30665 | 26718 ft | 425 kts | 8° |
| 2026-04-25 16:42 | 44.54295 | 11.31621 | 27114 ft | 428 kts | 19° |
| 2026-04-25 16:42 | 44.57009 | 11.33346 | 27512 ft | 430 kts | 30° |
| 2026-04-25 16:43 | 44.59451 | 11.35773 | 27915 ft | 432 kts | 39° |
| 2026-04-25 16:43 | 44.61768 | 11.38486 | 28323 ft | 435 kts | 39° |
| 2026-04-25 16:43 | 44.64096 | 11.41212 | 28715 ft | 437 kts | 39° |
| 2026-04-25 16:43 | 44.66433 | 11.43948 | 29104 ft | 439 kts | 39° |
| 2026-04-25 16:44 | 44.68750 | 11.46665 | 29490 ft | 441 kts | 39° |
| 2026-04-25 16:44 | 44.71111 | 11.49439 | 29862 ft | 443 kts | 39° |
| 2026-04-25 16:44 | 44.73478 | 11.52229 | 30201 ft | 445 kts | 40° |
| 2026-04-25 16:44 | 44.75857 | 11.55024 | 30504 ft | 447 kts | 38° |
| 2026-04-25 16:45 | 44.77570 | 11.56731 | 30707 ft | 448 kts | 31° |
| 2026-04-25 16:45 | 44.81302 | 11.59198 | 31098 ft | 450 kts | 18° |
| 2026-04-25 16:45 | 44.84352 | 11.60228 | 31391 ft | 451 kts | 8° |
| 2026-04-25 16:45 | 44.87480 | 11.60490 | 31805 ft | 450 kts | 358° |
| 2026-04-25 16:46 | 44.90590 | 11.60063 | 32236 ft | 449 kts | 353° |
| 2026-04-25 16:46 | 44.93684 | 11.59517 | 32676 ft | 447 kts | 353° |
| 2026-04-25 16:46 | 44.96770 | 11.58974 | 33105 ft | 446 kts | 353° |
| 2026-04-25 16:46 | 44.97814 | 11.58791 | 33262 ft | 446 kts | 353° |
| 2026-04-25 16:47 | 45.02916 | 11.57901 | 33983 ft | 443 kts | 353° |
| 2026-04-25 16:47 | 45.05967 | 11.57370 | 34373 ft | 442 kts | 354° |
| 2026-04-25 16:47 | 45.09022 | 11.56841 | 34757 ft | 441 kts | 353° |
| 2026-04-25 16:47 | 45.12059 | 11.56316 | 35134 ft | 440 kts | 354° |
| 2026-04-25 16:48 | 45.15095 | 11.55792 | 35507 ft | 439 kts | 354° |
| 2026-04-25 16:48 | 45.18121 | 11.55267 | 35870 ft | 438 kts | 353° |
| 2026-04-25 16:48 | 45.21140 | 11.54733 | 36211 ft | 437 kts | 353° |
| 2026-04-25 16:48 | 45.24151 | 11.54198 | 36550 ft | 436 kts | 353° |
| 2026-04-25 16:49 | 45.27160 | 11.53667 | 36888 ft | 435 kts | 353° |
| 2026-04-25 16:49 | 45.30134 | 11.53144 | 37208 ft | 434 kts | 353° |
| 2026-04-25 16:49 | 45.33150 | 11.52611 | 37536 ft | 433 kts | 353° |
| 2026-04-25 16:49 | 45.36142 | 11.52083 | 37857 ft | 432 kts | 353° |
| 2026-04-25 16:50 | 45.39125 | 11.51558 | 37983 ft | 432 kts | 353° |
| 2026-04-25 16:50 | 45.42109 | 11.51033 | 37999 ft | 431 kts | 353° |
| 2026-04-25 16:50 | 45.48048 | 11.49975 | 38002 ft | 430 kts | 353° |
| 2026-04-25 16:51 | 45.53991 | 11.48918 | 38006 ft | 430 kts | 353° |
| 2026-04-25 16:51 | 45.57923 | 11.48225 | 38006 ft | 430 kts | 353° |
| 2026-04-25 16:52 | 45.65864 | 11.46823 | 38010 ft | 430 kts | 353° |
| 2026-04-25 16:52 | 45.71763 | 11.45762 | 38011 ft | 430 kts | 353° |
| 2026-04-25 16:53 | 45.80662 | 11.44161 | 38020 ft | 429 kts | 353° |
| 2026-04-25 16:54 | 45.86585 | 11.43100 | 38030 ft | 429 kts | 353° |
| 2026-04-25 16:54 | 45.92504 | 11.42036 | 38031 ft | 428 kts | 353° |
| 2026-04-25 16:55 | 45.98421 | 11.40976 | 38029 ft | 428 kts | 353° |
| 2026-04-25 16:55 | 46.04328 | 11.39904 | 38031 ft | 428 kts | 353° |
| 2026-04-25 16:56 | 46.10228 | 11.38833 | 38045 ft | 427 kts | 353° |
| 2026-04-25 16:56 | 46.16130 | 11.37758 | 38062 ft | 427 kts | 353° |
| 2026-04-25 16:57 | 46.22027 | 11.36683 | 38076 ft | 427 kts | 353° |
| 2026-04-25 16:57 | 46.27949 | 11.36014 | 38082 ft | 427 kts | 1° |
| 2026-04-25 16:57 | 46.30922 | 11.36087 | 37916 ft | 428 kts | 1° |
| 2026-04-25 16:58 | 46.33895 | 11.36164 | 37908 ft | 428 kts | 1° |
| 2026-04-25 16:58 | 46.39851 | 11.36314 | 37901 ft | 428 kts | 1° |
| 2026-04-25 16:59 | 46.44804 | 11.36430 | 37903 ft | 428 kts | 1° |
| 2026-04-25 16:59 | 46.50766 | 11.36563 | 37905 ft | 428 kts | 1° |
| 2026-04-25 17:00 | 46.56722 | 11.36697 | 37910 ft | 428 kts | 1° |
| 2026-04-25 17:00 | 46.62679 | 11.36838 | 37933 ft | 428 kts | 1° |
| 2026-04-25 17:01 | 46.68630 | 11.36979 | 37949 ft | 428 kts | 1° |
| 2026-04-25 17:01 | 46.74580 | 11.37115 | 37973 ft | 427 kts | 1° |
| 2026-04-25 17:02 | 46.80523 | 11.37253 | 38007 ft | 427 kts | 1° |
| 2026-04-25 17:02 | 46.86432 | 11.37394 | 38019 ft | 426 kts | 1° |
| 2026-04-25 17:03 | 46.92360 | 11.37539 | 38020 ft | 426 kts | 1° |
| 2026-04-25 17:03 | 46.98287 | 11.37683 | 38019 ft | 426 kts | 1° |
| 2026-04-25 17:04 | 47.04217 | 11.37694 | 38016 ft | 426 kts | 359° |
| 2026-04-25 17:04 | 47.10145 | 11.37580 | 38018 ft | 426 kts | 359° |
| 2026-04-25 17:05 | 47.16070 | 11.37466 | 38008 ft | 426 kts | 359° |
| 2026-04-25 17:05 | 47.24957 | 11.37376 | 38014 ft | 426 kts | 359° |
| 2026-04-25 17:06 | 47.30882 | 11.37333 | 38021 ft | 425 kts | 359° |
| 2026-04-25 17:06 | 47.36783 | 11.37299 | 38024 ft | 426 kts | 359° |
| 2026-04-25 17:07 | 47.42729 | 11.37249 | 38027 ft | 426 kts | 359° |
| 2026-04-25 17:07 | 47.48657 | 11.37183 | 38023 ft | 426 kts | 359° |
| 2026-04-25 17:08 | 47.54593 | 11.37114 | 38032 ft | 427 kts | 359° |
| 2026-04-25 17:08 | 47.60532 | 11.37054 | 38033 ft | 427 kts | 359° |
| 2026-04-25 17:09 | 47.66473 | 11.36998 | 38038 ft | 427 kts | 359° |
| 2026-04-25 17:09 | 47.72382 | 11.36946 | 38041 ft | 428 kts | 359° |
| 2026-04-25 17:10 | 47.78374 | 11.36891 | 38053 ft | 428 kts | 359° |
| 2026-04-25 17:10 | 47.84329 | 11.36825 | 38064 ft | 428 kts | 358° |
| 2026-04-25 17:11 | 47.90285 | 11.36837 | 38072 ft | 428 kts | 359° |
| 2026-04-25 17:11 | 47.96202 | 11.36996 | 38077 ft | 428 kts | 360° |
| 2026-04-25 17:12 | 48.02164 | 11.37181 | 38086 ft | 428 kts | 360° |
| 2026-04-25 17:12 | 48.08118 | 11.37335 | 38086 ft | 428 kts | 359° |
| 2026-04-25 17:13 | 48.13076 | 11.37438 | 38085 ft | 428 kts | 359° |
| 2026-04-25 17:13 | 48.20039 | 11.37576 | 38083 ft | 428 kts | 359° |
| 2026-04-25 17:14 | 48.25999 | 11.37714 | 38084 ft | 428 kts | 359° |
| 2026-04-25 17:14 | 48.31962 | 11.37856 | 38078 ft | 428 kts | 359° |
| 2026-04-25 17:15 | 48.37922 | 11.37996 | 38068 ft | 428 kts | 359° |
| 2026-04-25 17:15 | 48.43882 | 11.38124 | 38071 ft | 429 kts | 359° |
| 2026-04-25 17:16 | 48.49852 | 11.38256 | 38069 ft | 429 kts | 359° |
| 2026-04-25 17:16 | 48.55809 | 11.38394 | 38064 ft | 429 kts | 359° |
| 2026-04-25 17:17 | 48.61777 | 11.38525 | 38068 ft | 429 kts | 358° |
| 2026-04-25 17:17 | 48.67742 | 11.38653 | 38064 ft | 429 kts | 358° |
| 2026-04-25 17:18 | 48.73709 | 11.38798 | 38072 ft | 429 kts | 358° |
| 2026-04-25 17:18 | 48.79673 | 11.38938 | 38074 ft | 429 kts | 358° |
| 2026-04-25 17:19 | 48.85634 | 11.39076 | 38071 ft | 429 kts | 358° |
| 2026-04-25 17:19 | 48.91603 | 11.39215 | 38077 ft | 429 kts | 358° |
| 2026-04-25 17:20 | 48.97563 | 11.39350 | 38082 ft | 428 kts | 358° |
| 2026-04-25 17:20 | 49.03517 | 11.39493 | 38084 ft | 428 kts | 358° |
| 2026-04-25 17:21 | 49.09473 | 11.39636 | 38085 ft | 428 kts | 358° |
| 2026-04-25 17:21 | 49.15428 | 11.39783 | 38088 ft | 428 kts | 358° |
| 2026-04-25 17:22 | 49.20369 | 11.39895 | 38084 ft | 427 kts | 358° |
| 2026-04-25 17:22 | 49.27314 | 11.40047 | 38089 ft | 427 kts | 358° |
| 2026-04-25 17:23 | 49.33256 | 11.40179 | 38084 ft | 427 kts | 357° |
| 2026-04-25 17:23 | 49.39157 | 11.40319 | 38081 ft | 427 kts | 357° |
| 2026-04-25 17:24 | 49.45131 | 11.40467 | 38073 ft | 426 kts | 357° |
| 2026-04-25 17:24 | 49.51024 | 11.40598 | 38075 ft | 426 kts | 357° |
| 2026-04-25 17:25 | 49.56958 | 11.40730 | 38070 ft | 426 kts | 356° |
| 2026-04-25 17:25 | 49.62879 | 11.40687 | 38074 ft | 425 kts | 355° |
| 2026-04-25 17:26 | 49.68792 | 11.40497 | 38079 ft | 425 kts | 355° |
| 2026-04-25 17:26 | 49.74702 | 11.40322 | 38085 ft | 425 kts | 355° |
| 2026-04-25 17:27 | 49.80621 | 11.40189 | 38088 ft | 425 kts | 355° |
| 2026-04-25 17:27 | 49.84579 | 11.40107 | 38083 ft | 425 kts | 355° |
| 2026-04-25 17:28 | 49.92450 | 11.39940 | 38085 ft | 425 kts | 355° |
| 2026-04-25 17:28 | 49.98359 | 11.39802 | 38095 ft | 425 kts | 355° |
| 2026-04-25 17:29 | 50.04269 | 11.39658 | 38086 ft | 424 kts | 354° |
| 2026-04-25 17:29 | 50.10178 | 11.39530 | 38092 ft | 424 kts | 354° |
| 2026-04-25 17:30 | 50.16080 | 11.39402 | 38087 ft | 424 kts | 354° |
| 2026-04-25 17:30 | 50.21974 | 11.39256 | 38089 ft | 424 kts | 354° |
| 2026-04-25 17:31 | 50.27832 | 11.39128 | 38091 ft | 424 kts | 354° |
| 2026-04-25 17:31 | 50.33722 | 11.39013 | 38091 ft | 423 kts | 354° |
| 2026-04-25 17:32 | 50.39610 | 11.38885 | 38092 ft | 423 kts | 354° |
| 2026-04-25 17:32 | 50.45500 | 11.38749 | 38098 ft | 423 kts | 354° |
| 2026-04-25 17:33 | 50.51375 | 11.38617 | 38090 ft | 422 kts | 354° |
| 2026-04-25 17:33 | 50.57246 | 11.38477 | 38095 ft | 422 kts | 354° |
| 2026-04-25 17:34 | 50.63118 | 11.38340 | 38096 ft | 422 kts | 354° |
| 2026-04-25 17:34 | 50.68988 | 11.38206 | 38087 ft | 422 kts | 354° |
| 2026-04-25 17:35 | 50.74852 | 11.38065 | 38087 ft | 422 kts | 354° |
| 2026-04-25 17:35 | 50.80709 | 11.37940 | 38168 ft | 418 kts | 354° |
| 2026-04-25 17:36 | 50.86465 | 11.37815 | 38063 ft | 411 kts | 354° |
| 2026-04-25 17:36 | 50.92192 | 11.37683 | 38063 ft | 412 kts | 354° |
| 2026-04-25 17:37 | 50.97920 | 11.37543 | 38071 ft | 412 kts | 354° |
| 2026-04-25 17:37 | 51.03662 | 11.37402 | 38078 ft | 412 kts | 354° |
| 2026-04-25 17:38 | 51.07459 | 11.37317 | 38076 ft | 412 kts | 354° |
| 2026-04-25 17:38 | 51.15139 | 11.37143 | 38078 ft | 412 kts | 354° |
| 2026-04-25 17:39 | 51.20873 | 11.37006 | 38081 ft | 412 kts | 354° |
| 2026-04-25 17:39 | 51.26606 | 11.36865 | 38088 ft | 412 kts | 354° |
| 2026-04-25 17:40 | 51.32334 | 11.36733 | 38074 ft | 411 kts | 354° |
| 2026-04-25 17:40 | 51.38058 | 11.36599 | 38080 ft | 411 kts | 354° |
| 2026-04-25 17:41 | 51.43737 | 11.36467 | 38081 ft | 411 kts | 354° |
| 2026-04-25 17:41 | 51.49452 | 11.36323 | 38091 ft | 411 kts | 354° |
| 2026-04-25 17:42 | 51.55168 | 11.36184 | 38068 ft | 410 kts | 354° |
| 2026-04-25 17:42 | 51.60874 | 11.36053 | 38062 ft | 410 kts | 354° |
| 2026-04-25 17:43 | 51.66581 | 11.35919 | 38059 ft | 410 kts | 354° |
| 2026-04-25 17:43 | 51.71315 | 11.35805 | 38059 ft | 409 kts | 354° |
| 2026-04-25 17:44 | 51.77965 | 11.35639 | 38056 ft | 409 kts | 354° |
| 2026-04-25 17:44 | 51.82736 | 11.36174 | 38056 ft | 415 kts | 4° |
| 2026-04-25 17:45 | 51.87467 | 11.37508 | 38053 ft | 415 kts | 4° |
| 2026-04-25 17:45 | 51.94074 | 11.39389 | 38052 ft | 414 kts | 4° |
| 2026-04-25 17:46 | 51.99749 | 11.41006 | 38057 ft | 414 kts | 4° |
| 2026-04-25 17:46 | 52.05421 | 11.42619 | 38060 ft | 413 kts | 4° |
| 2026-04-25 17:47 | 52.11082 | 11.44235 | 38064 ft | 413 kts | 4° |
| 2026-04-25 17:47 | 52.16730 | 11.45862 | 38065 ft | 412 kts | 4° |
| 2026-04-25 17:48 | 52.25188 | 11.48314 | 38062 ft | 411 kts | 4° |
| 2026-04-25 17:49 | 52.30816 | 11.49940 | 38066 ft | 410 kts | 4° |
| 2026-04-25 17:49 | 52.36439 | 11.51565 | 38064 ft | 410 kts | 4° |
| 2026-04-25 17:50 | 52.42050 | 11.53200 | 38063 ft | 409 kts | 4° |
| 2026-04-25 17:50 | 52.47658 | 11.54839 | 38064 ft | 409 kts | 4° |
| 2026-04-25 17:51 | 52.53253 | 11.56474 | 38061 ft | 409 kts | 4° |
| 2026-04-25 17:51 | 52.58850 | 11.58107 | 38062 ft | 408 kts | 4° |
| 2026-04-25 17:52 | 52.64442 | 11.59751 | 38063 ft | 408 kts | 4° |
| 2026-04-25 17:52 | 52.70027 | 11.61406 | 38060 ft | 408 kts | 3° |
| 2026-04-25 17:53 | 52.75582 | 11.63054 | 38058 ft | 408 kts | 3° |
| 2026-04-25 17:53 | 52.81165 | 11.64702 | 38057 ft | 408 kts | 3° |
| 2026-04-25 17:54 | 52.86753 | 11.66355 | 38059 ft | 408 kts | 3° |
| 2026-04-25 17:54 | 52.92338 | 11.68018 | 38053 ft | 408 kts | 3° |
| 2026-04-25 17:55 | 52.97920 | 11.69693 | 38051 ft | 408 kts | 3° |
| 2026-04-25 17:55 | 53.03507 | 11.71364 | 38046 ft | 408 kts | 2° |
| 2026-04-25 17:56 | 53.09095 | 11.73023 | 38041 ft | 408 kts | 2° |
| 2026-04-25 17:56 | 53.14684 | 11.74691 | 38031 ft | 408 kts | 2° |
| 2026-04-25 17:57 | 53.20285 | 11.76369 | 38033 ft | 409 kts | 2° |
| 2026-04-25 17:57 | 53.25881 | 11.78066 | 38034 ft | 409 kts | 3° |
| 2026-04-25 17:58 | 53.31477 | 11.79783 | 38025 ft | 409 kts | 3° |
| 2026-04-25 17:58 | 53.36932 | 11.81462 | 38018 ft | 409 kts | 3° |
| 2026-04-25 17:59 | 53.42474 | 11.83162 | 38014 ft | 409 kts | 3° |
| 2026-04-25 17:59 | 53.48066 | 11.84874 | 38013 ft | 409 kts | 3° |
| 2026-04-25 18:00 | 53.53668 | 11.86592 | 37730 ft | 411 kts | 3° |
| 2026-04-25 18:00 | 53.56482 | 11.87453 | 37188 ft | 411 kts | 2° |
| 2026-04-25 18:00 | 53.59293 | 11.88317 | 36666 ft | 410 kts | 2° |
| 2026-04-25 18:00 | 53.62091 | 11.89182 | 36153 ft | 407 kts | 2° |
| 2026-04-25 18:01 | 53.64868 | 11.90040 | 35645 ft | 405 kts | 2° |
| 2026-04-25 18:01 | 53.67628 | 11.90893 | 35155 ft | 401 kts | 2° |
| 2026-04-25 18:01 | 53.70364 | 11.91742 | 34671 ft | 398 kts | 1° |
| 2026-04-25 18:01 | 53.73068 | 11.92579 | 34200 ft | 395 kts | 1° |
| 2026-04-25 18:02 | 53.75761 | 11.93411 | 33693 ft | 393 kts | 1° |
| 2026-04-25 18:02 | 53.78444 | 11.94239 | 33151 ft | 392 kts | 1° |
| 2026-04-25 18:02 | 53.81125 | 11.95067 | 32626 ft | 392 kts | 0° |
| 2026-04-25 18:02 | 53.83803 | 11.95900 | 32109 ft | 390 kts | 0° |
| 2026-04-25 18:03 | 53.86461 | 11.96731 | 31596 ft | 387 kts | 0° |
| 2026-04-25 18:03 | 53.89103 | 11.97562 | 31097 ft | 384 kts | 0° |
| 2026-04-25 18:03 | 53.91718 | 11.98386 | 30606 ft | 381 kts | 360° |
| 2026-04-25 18:03 | 53.94312 | 11.99204 | 30124 ft | 378 kts | 360° |
| 2026-04-25 18:04 | 53.96888 | 12.00017 | 29576 ft | 375 kts | 359° |
| 2026-04-25 18:04 | 53.99437 | 12.00818 | 29022 ft | 371 kts | 359° |
| 2026-04-25 18:04 | 54.01958 | 12.01611 | 28475 ft | 367 kts | 359° |
| 2026-04-25 18:04 | 54.04461 | 12.02397 | 27940 ft | 364 kts | 359° |
| 2026-04-25 18:05 | 54.06936 | 12.03176 | 27410 ft | 360 kts | 359° |
| 2026-04-25 18:05 | 54.09391 | 12.03948 | 26895 ft | 356 kts | 359° |
| 2026-04-25 18:05 | 54.11817 | 12.04713 | 26388 ft | 353 kts | 359° |
| 2026-04-25 18:05 | 54.14219 | 12.05468 | 25892 ft | 350 kts | 358° |
| 2026-04-25 18:06 | 54.16603 | 12.06217 | 25402 ft | 347 kts | 358° |
| 2026-04-25 18:06 | 54.18969 | 12.06962 | 24924 ft | 344 kts | 358° |
| 2026-04-25 18:06 | 54.21314 | 12.07703 | 24452 ft | 341 kts | 358° |
| 2026-04-25 18:06 | 54.23638 | 12.08442 | 23983 ft | 338 kts | 358° |
| 2026-04-25 18:07 | 54.25940 | 12.09348 | 23515 ft | 347 kts | 6° |
| 2026-04-25 18:07 | 54.28197 | 12.10844 | 22979 ft | 348 kts | 8° |
| 2026-04-25 18:07 | 54.30437 | 12.12362 | 22566 ft | 345 kts | 8° |
| 2026-04-25 18:07 | 54.32658 | 12.13880 | 22168 ft | 342 kts | 8° |
| 2026-04-25 18:08 | 54.34862 | 12.15391 | 21777 ft | 340 kts | 8° |
| 2026-04-25 18:08 | 54.37057 | 12.16895 | 21417 ft | 339 kts | 8° |
| 2026-04-25 18:08 | 54.39238 | 12.18385 | 21034 ft | 337 kts | 7° |
| 2026-04-25 18:08 | 54.41408 | 12.19871 | 20655 ft | 335 kts | 7° |
| 2026-04-25 18:09 | 54.43564 | 12.21344 | 20283 ft | 333 kts | 7° |
| 2026-04-25 18:09 | 54.45711 | 12.22806 | 19915 ft | 331 kts | 7° |
| 2026-04-25 18:09 | 54.47849 | 12.24263 | 19552 ft | 330 kts | 7° |
| 2026-04-25 18:09 | 54.48543 | 12.24736 | 19431 ft | 329 kts | 7° |
| 2026-04-25 18:10 | 54.52099 | 12.27169 | 18835 ft | 327 kts | 7° |
| 2026-04-25 18:10 | 54.54206 | 12.28620 | 18487 ft | 326 kts | 7° |
| 2026-04-25 18:10 | 54.56310 | 12.30074 | 18127 ft | 325 kts | 7° |
| 2026-04-25 18:10 | 54.58402 | 12.31520 | 17725 ft | 323 kts | 7° |
| 2026-04-25 18:11 | 54.60484 | 12.32959 | 17324 ft | 322 kts | 8° |
| 2026-04-25 18:11 | 54.62617 | 12.34411 | 16925 ft | 338 kts | 8° |
| 2026-04-25 18:11 | 54.64829 | 12.35911 | 16534 ft | 344 kts | 9° |
| 2026-04-25 18:11 | 54.67055 | 12.37448 | 16147 ft | 344 kts | 9° |
| 2026-04-25 18:12 | 54.69272 | 12.39001 | 15766 ft | 343 kts | 9° |
| 2026-04-25 18:12 | 54.71477 | 12.40547 | 15389 ft | 342 kts | 10° |
| 2026-04-25 18:12 | 54.73678 | 12.42085 | 15017 ft | 340 kts | 10° |
| 2026-04-25 18:12 | 54.75866 | 12.43612 | 14643 ft | 338 kts | 10° |
| 2026-04-25 18:13 | 54.78045 | 12.45133 | 14285 ft | 337 kts | 10° |
| 2026-04-25 18:13 | 54.80217 | 12.46648 | 13926 ft | 335 kts | 11° |
| 2026-04-25 18:13 | 54.82348 | 12.48137 | 13555 ft | 334 kts | 11° |
| 2026-04-25 18:14 | 54.86644 | 12.51144 | 12741 ft | 331 kts | 12° |
| 2026-04-25 18:14 | 54.88805 | 12.52655 | 12339 ft | 330 kts | 12° |
| 2026-04-25 18:14 | 54.90905 | 12.54126 | 11948 ft | 329 kts | 13° |
| 2026-04-25 18:14 | 54.93021 | 12.55613 | 11557 ft | 328 kts | 13° |
| 2026-04-25 18:15 | 54.95128 | 12.57093 | 11175 ft | 326 kts | 14° |
| 2026-04-25 18:15 | 54.97229 | 12.58571 | 10808 ft | 325 kts | 14° |
| 2026-04-25 18:15 | 54.99327 | 12.60050 | 10577 ft | 325 kts | 14° |
| 2026-04-25 18:15 | 55.01418 | 12.61525 | 10322 ft | 324 kts | 15° |
| 2026-04-25 18:16 | 55.03504 | 12.62997 | 10061 ft | 323 kts | 15° |
| 2026-04-25 18:16 | 55.05585 | 12.64466 | 9888 ft | 322 kts | 15° |
| 2026-04-25 18:16 | 55.09742 | 12.67409 | 9625 ft | 322 kts | 15° |
| 2026-04-25 18:17 | 55.11812 | 12.68876 | 9490 ft | 321 kts | 15° |
| 2026-04-25 18:17 | 55.13878 | 12.70340 | 9353 ft | 320 kts | 16° |
| 2026-04-25 18:17 | 55.15887 | 12.71810 | 9211 ft | 305 kts | 16° |
| 2026-04-25 18:17 | 55.17817 | 12.73148 | 8861 ft | 293 kts | 12° |
| 2026-04-25 18:18 | 55.19756 | 12.73983 | 8328 ft | 284 kts | 6° |
| 2026-04-25 18:18 | 55.21678 | 12.74658 | 7796 ft | 280 kts | 5° |
| 2026-04-25 18:18 | 55.23582 | 12.75305 | 7274 ft | 277 kts | 5° |
| 2026-04-25 18:18 | 55.25461 | 12.75929 | 6754 ft | 274 kts | 5° |
| 2026-04-25 18:19 | 55.27325 | 12.76529 | 6244 ft | 270 kts | 5° |
| 2026-04-25 18:19 | 55.29164 | 12.77112 | 5708 ft | 268 kts | 5° |
| 2026-04-25 18:19 | 55.30993 | 12.77679 | 5176 ft | 265 kts | 5° |
| 2026-04-25 18:19 | 55.32804 | 12.78230 | 4701 ft | 262 kts | 5° |
| 2026-04-25 18:20 | 55.34531 | 12.78755 | 4554 ft | 242 kts | 5° |
| 2026-04-25 18:20 | 55.36125 | 12.79269 | 4378 ft | 225 kts | 5° |
| 2026-04-25 18:20 | 55.37642 | 12.79775 | 3948 ft | 220 kts | 5° |
| 2026-04-25 18:20 | 55.39138 | 12.80283 | 3520 ft | 215 kts | 5° |
| 2026-04-25 18:21 | 55.40547 | 12.80781 | 3387 ft | 198 kts | 6° |
| 2026-04-25 18:21 | 55.41833 | 12.81248 | 3220 ft | 181 kts | 5° |
| 2026-04-25 18:21 | 55.43051 | 12.81700 | 2851 ft | 178 kts | 5° |
| 2026-04-25 18:21 | 55.44264 | 12.82158 | 2511 ft | 178 kts | 5° |
| 2026-04-25 18:22 | 55.45479 | 12.82619 | 2166 ft | 179 kts | 5° |
| 2026-04-25 18:22 | 55.45888 | 12.82775 | 2063 ft | 179 kts | 5° |
| 2026-04-25 18:22 | 55.47872 | 12.83557 | 1999 ft | 168 kts | 5° |
| 2026-04-25 18:22 | 55.48989 | 12.84020 | 2005 ft | 162 kts | 5° |
| 2026-04-25 18:23 | 55.50079 | 12.84477 | 2046 ft | 160 kts | 5° |
| 2026-04-25 18:23 | 55.51160 | 12.84930 | 2020 ft | 159 kts | 5° |
| 2026-04-25 18:23 | 55.52237 | 12.85330 | 2000 ft | 156 kts | 359° |
| 2026-04-25 18:23 | 55.53264 | 12.84925 | 1997 ft | 152 kts | 337° |
| 2026-04-25 18:24 | 55.54236 | 12.84228 | 1996 ft | 151 kts | 335° |
| 2026-04-25 18:24 | 55.55146 | 12.83340 | 1998 ft | 149 kts | 319° |
| 2026-04-25 18:24 | 55.55724 | 12.81910 | 1985 ft | 139 kts | 308° |
| 2026-04-25 18:24 | 55.56248 | 12.80508 | 1879 ft | 135 kts | 308° |
| 2026-04-25 18:25 | 55.56763 | 12.79129 | 1728 ft | 134 kts | 308° |
| 2026-04-25 18:25 | 55.57275 | 12.77757 | 1553 ft | 134 kts | 307° |
| 2026-04-25 18:25 | 55.57787 | 12.76382 | 1379 ft | 134 kts | 307° |
| 2026-04-25 18:25 | 55.58291 | 12.75026 | 1200 ft | 124 kts | 307° |
| 2026-04-25 18:26 | 55.58745 | 12.73796 | 1021 ft | 116 kts | 307° |
| 2026-04-25 18:26 | 55.59182 | 12.72619 | 830 ft | 116 kts | 309° |
| 2026-04-25 18:26 | 55.59473 | 12.71840 | 740 ft | 114 kts | 308° |
| 2026-04-25 18:26 | 55.59901 | 12.70644 | 594 ft | 113 kts | 310° |
| 2026-04-25 18:27 | 55.60342 | 12.69501 | 435 ft | 116 kts | 307° |
| 2026-04-25 18:27 | 55.60790 | 12.68313 | 254 ft | 117 kts | 306° |
| 2026-04-25 18:27 | 55.61227 | 12.67126 | 110 ft | 115 kts | 304° |
| 2026-04-25 18:27 | 55.61652 | 12.65975 | 27 ft | 101 kts | 304° |
| 2026-04-25 18:28 | 55.61959 | 12.65158 | 23 ft | 55 kts | 303° |
| 2026-04-25 18:28 | 55.62106 | 12.64759 | 24 ft | 17 kts | 303° |
| 2026-04-25 18:28 | 55.62189 | 12.64746 | 24 ft | 9 kts | 33° |
| 2026-04-25 18:29 | 55.62212 | 12.64773 | 25 ft | 0 kts | 34° |
| 2026-04-25 18:29 | 55.62218 | 12.64781 | 26 ft | 4 kts | 34° |
| 2026-04-25 18:30 | 55.62356 | 12.64865 | 25 ft | 11 kts | 305° |
| 2026-04-25 18:30 | 55.62405 | 12.64728 | 24 ft | 16 kts | 303° |
| 2026-04-25 18:30 | 55.62450 | 12.64608 | 26 ft | 20 kts | 303° |
| 2026-04-25 18:30 | 55.62529 | 12.64396 | 25 ft | 12 kts | 303° |
| 2026-04-25 18:31 | 55.62576 | 12.64283 | 24 ft | 2 kts | 345° |
| 2026-04-25 18:31 | 55.62592 | 12.64294 | 24 ft | 5 kts | 28° |
| 2026-04-25 18:31 | 55.62613 | 12.64362 | 24 ft | 8 kts | 66° |
| 2026-04-25 18:31 | 55.62625 | 12.64410 | 25 ft | 3 kts | 66° |
| 2026-04-25 18:32 | 55.62627 | 12.64418 | 24 ft | 0 kts | 66° |